sensor_id;sensor_type;location;lat;lon;timestamp;P1;durP1;ratioP1;P2;durP2;ratioP2
14019;SDS011;7085;51.428;6.796;2023-07-13T03:02:52;1.38;;;1.27;;
14019;SDS011;7085;51.428;6.796;2023-07-13T03:05:22;5.38;;;1.55;;
14019;SDS011;7085;51.428;6.796;2023-07-13T03:07:49;3.60;;;1.85;;
14019;SDS011;7085;51.428;6.796;2023-07-13T03:10:16;2.90;;;1.60;;
14019;SDS011;7085;51.428;6.796;2023-07-13T03:12:44;1.40;;;1.30;;
14019;SDS011;7085;51.428;6.796;2023-07-13T03:15:11;4.13;;;1.45;;
14019;SDS011;7085;51.428;6.796;2023-07-13T03:17:38;6.05;;;1.90;;
14019;SDS011;7085;51.428;6.796;2023-07-13T03:20:07;4.20;;;1.10;;
14019;SDS011;7085;51.428;6.796;2023-07-13T03:22:34;2.75;;;1.30;;
14019;SDS011;7085;51.428;6.796;2023-07-13T03:25:01;2.35;;;1.33;;
14019;SDS011;7085;51.428;6.796;2023-07-13T03:27:29;4.28;;;1.45;;
14019;SDS011;7085;51.428;6.796;2023-07-13T03:29:56;1.88;;;1.30;;
14019;SDS011;7085;51.428;6.796;2023-07-13T03:32:23;2.10;;;0.93;;
14019;SDS011;7085;51.428;6.796;2023-07-13T03:34:50;1.15;;;1.05;;
14019;SDS011;7085;51.428;6.796;2023-07-13T03:37:19;4.38;;;1.35;;
14019;SDS011;7085;51.428;6.796;2023-07-13T03:39:46;1.50;;;1.05;;
14019;SDS011;7085;51.428;6.796;2023-07-13T03:42:13;7.38;;;1.55;;
14019;SDS011;7085;51.428;6.796;2023-07-13T03:44:41;2.88;;;1.33;;
14019;SDS011;7085;51.428;6.796;2023-07-13T03:47:11;2.28;;;1.48;;
14019;SDS011;7085;51.428;6.796;2023-07-13T03:49:38;2.90;;;1.45;;
14019;SDS011;7085;51.428;6.796;2023-07-13T03:52:05;1.40;;;1.02;;
14019;SDS011;7085;51.428;6.796;2023-07-13T03:54:34;5.20;;;1.70;;
14019;SDS011;7085;51.428;6.796;2023-07-13T03:57:01;3.50;;;1.30;;
14019;SDS011;7085;51.428;6.796;2023-07-13T03:59:28;4.60;;;1.20;;
14019;SDS011;7085;51.428;6.796;2023-07-13T04:01:55;3.63;;;1.55;;
14019;SDS011;7085;51.428;6.796;2023-07-13T04:04:22;4.88;;;1.50;;
14019;SDS011;7085;51.428;6.796;2023-07-13T04:06:49;2.22;;;1.30;;
14019;SDS011;7085;51.428;6.796;2023-07-13T04:09:17;4.20;;;1.63;;
14019;SDS011;7085;51.428;6.796;2023-07-13T04:11:46;3.78;;;1.35;;
14019;SDS011;7085;51.428;6.796;2023-07-13T04:14:13;5.07;;;1.45;;
14019;SDS011;7085;51.428;6.796;2023-07-13T04:16:40;3.10;;;1.05;;
14019;SDS011;7085;51.428;6.796;2023-07-13T04:19:08;3.22;;;1.30;;
14019;SDS011;7085;51.428;6.796;2023-07-13T04:21:35;4.22;;;1.45;;
14019;SDS011;7085;51.428;6.796;2023-07-13T04:24:03;3.63;;;1.80;;
14019;SDS011;7085;51.428;6.796;2023-07-13T04:26:30;5.60;;;1.35;;
14019;SDS011;7085;51.428;6.796;2023-07-13T04:29:02;2.65;;;1.45;;
14019;SDS011;7085;51.428;6.796;2023-07-13T04:31:30;8.63;;;2.17;;
14019;SDS011;7085;51.428;6.796;2023-07-13T04:33:57;1.98;;;1.27;;
14019;SDS011;7085;51.428;6.796;2023-07-13T04:36:24;4.60;;;1.55;;
14019;SDS011;7085;51.428;6.796;2023-07-13T04:38:52;4.20;;;1.58;;
14019;SDS011;7085;51.428;6.796;2023-07-13T04:41:20;4.32;;;1.30;;
14019;SDS011;7085;51.428;6.796;2023-07-13T04:43:47;3.53;;;1.50;;
14019;SDS011;7085;51.428;6.796;2023-07-13T04:46:17;3.30;;;1.50;;
14019;SDS011;7085;51.428;6.796;2023-07-13T04:48:44;4.35;;;1.67;;
14019;SDS011;7085;51.428;6.796;2023-07-13T04:51:11;5.25;;;1.33;;
14019;SDS011;7085;51.428;6.796;2023-07-13T04:53:38;7.53;;;1.73;;
14019;SDS011;7085;51.428;6.796;2023-07-13T04:56:05;3.90;;;1.60;;
14019;SDS011;7085;51.428;6.796;2023-07-13T04:58:32;5.20;;;1.95;;
14019;SDS011;7085;51.428;6.796;2023-07-13T05:01:00;4.22;;;1.88;;
14019;SDS011;7085;51.428;6.796;2023-07-13T05:03:29;3.88;;;1.85;;
14019;SDS011;7085;51.428;6.796;2023-07-13T05:05:56;3.05;;;1.70;;
14019;SDS011;7085;51.428;6.796;2023-07-13T05:08:23;5.15;;;1.85;;
14019;SDS011;7085;51.428;6.796;2023-07-13T05:10:50;7.53;;;2.22;;
14019;SDS011;7085;51.428;6.796;2023-07-13T05:13:18;7.53;;;1.85;;
14019;SDS011;7085;51.428;6.796;2023-07-13T05:15:45;7.43;;;1.70;;
14019;SDS011;7085;51.428;6.796;2023-07-13T05:18:12;8.23;;;2.05;;
14019;SDS011;7085;51.428;6.796;2023-07-13T05:20:40;9.48;;;2.53;;
14019;SDS011;7085;51.428;6.796;2023-07-13T05:23:07;4.63;;;1.60;;
14019;SDS011;7085;51.428;6.796;2023-07-13T05:25:35;2.97;;;1.50;;
14019;SDS011;7085;51.428;6.796;2023-07-13T05:28:02;2.33;;;1.70;;
14019;SDS011;7085;51.428;6.796;2023-07-13T05:30:29;2.97;;;1.80;;
14019;SDS011;7085;51.428;6.796;2023-07-13T05:32:56;6.18;;;2.00;;
14019;SDS011;7085;51.428;6.796;2023-07-13T05:35:23;3.42;;;1.70;;
14019;SDS011;7085;51.428;6.796;2023-07-13T05:37:51;7.25;;;2.10;;
14019;SDS011;7085;51.428;6.796;2023-07-13T05:40:18;3.80;;;1.77;;
14019;SDS011;7085;51.428;6.796;2023-07-13T05:42:45;3.17;;;2.03;;
14019;SDS011;7085;51.428;6.796;2023-07-13T05:45:12;3.90;;;1.65;;
14019;SDS011;7085;51.428;6.796;2023-07-13T05:47:40;3.92;;;1.65;;
14019;SDS011;7085;51.428;6.796;2023-07-13T05:50:07;4.55;;;1.88;;
14019;SDS011;7085;51.428;6.796;2023-07-13T05:52:34;4.38;;;1.60;;
14019;SDS011;7085;51.428;6.796;2023-07-13T05:55:03;2.78;;;1.73;;
14019;SDS011;7085;51.428;6.796;2023-07-13T05:57:30;6.40;;;2.60;;
14019;SDS011;7085;51.428;6.796;2023-07-13T05:59:57;4.43;;;1.73;;
14019;SDS011;7085;51.428;6.796;2023-07-13T06:02:24;2.35;;;1.50;;
14019;SDS011;7085;51.428;6.796;2023-07-13T06:04:51;6.00;;;1.83;;
14019;SDS011;7085;51.428;6.796;2023-07-13T06:07:21;3.92;;;1.83;;
14019;SDS011;7085;51.428;6.796;2023-07-13T06:09:48;4.93;;;2.05;;
14019;SDS011;7085;51.428;6.796;2023-07-13T06:12:17;8.65;;;1.80;;
14019;SDS011;7085;51.428;6.796;2023-07-13T06:14:44;6.15;;;2.17;;
14019;SDS011;7085;51.428;6.796;2023-07-13T06:17:11;6.38;;;2.42;;
14019;SDS011;7085;51.428;6.796;2023-07-13T06:19:39;6.47;;;2.28;;
14019;SDS011;7085;51.428;6.796;2023-07-13T06:22:06;10.43;;;3.28;;
14019;SDS011;7085;51.428;6.796;2023-07-13T06:24:33;6.07;;;2.50;;
14019;SDS011;7085;51.428;6.796;2023-07-13T06:27:00;7.28;;;2.33;;
14019;SDS011;7085;51.428;6.796;2023-07-13T06:29:29;7.05;;;1.92;;
14019;SDS011;7085;51.428;6.796;2023-07-13T06:31:57;4.50;;;1.98;;
14019;SDS011;7085;51.428;6.796;2023-07-13T06:34:24;6.50;;;2.10;;
14019;SDS011;7085;51.428;6.796;2023-07-13T06:36:51;3.60;;;2.25;;
14019;SDS011;7085;51.428;6.796;2023-07-13T06:39:18;7.38;;;2.25;;
14019;SDS011;7085;51.428;6.796;2023-07-13T06:41:45;9.27;;;2.70;;
14019;SDS011;7085;51.428;6.796;2023-07-13T06:44:12;4.65;;;2.05;;
14019;SDS011;7085;51.428;6.796;2023-07-13T06:46:40;4.15;;;2.03;;
14019;SDS011;7085;51.428;6.796;2023-07-13T06:49:08;7.30;;;2.60;;
14019;SDS011;7085;51.428;6.796;2023-07-13T06:51:35;8.00;;;2.38;;
14019;SDS011;7085;51.428;6.796;2023-07-13T06:54:02;4.93;;;2.50;;
14019;SDS011;7085;51.428;6.796;2023-07-13T06:56:29;4.53;;;2.30;;
14019;SDS011;7085;51.428;6.796;2023-07-13T06:58:56;4.68;;;2.22;;
14019;SDS011;7085;51.428;6.796;2023-07-13T07:01:23;5.43;;;2.20;;
14019;SDS011;7085;51.428;6.796;2023-07-13T07:03:52;4.55;;;1.92;;
14019;SDS011;7085;51.428;6.796;2023-07-13T07:06:19;6.68;;;2.47;;
14019;SDS011;7085;51.428;6.796;2023-07-13T07:08:48;6.55;;;2.33;;
14019;SDS011;7085;51.428;6.796;2023-07-13T07:11:16;4.20;;;2.20;;
14019;SDS011;7085;51.428;6.796;2023-07-13T07:13:43;6.25;;;2.17;;
14019;SDS011;7085;51.428;6.796;2023-07-13T07:16:11;5.32;;;2.10;;
14019;SDS011;7085;51.428;6.796;2023-07-13T07:18:38;5.30;;;2.00;;
14019;SDS011;7085;51.428;6.796;2023-07-13T07:21:06;4.03;;;1.95;;
14019;SDS011;7085;51.428;6.796;2023-07-13T07:23:34;7.25;;;2.28;;
14019;SDS011;7085;51.428;6.796;2023-07-13T07:26:01;3.97;;;1.90;;
14019;SDS011;7085;51.428;6.796;2023-07-13T07:28:28;5.38;;;2.25;;
14019;SDS011;7085;51.428;6.796;2023-07-13T07:30:56;6.13;;;2.60;;
14019;SDS011;7085;51.428;6.796;2023-07-13T07:33:23;6.68;;;2.42;;
14019;SDS011;7085;51.428;6.796;2023-07-13T07:35:51;7.60;;;2.13;;
14019;SDS011;7085;51.428;6.796;2023-07-13T07:38:19;5.28;;;2.08;;
14019;SDS011;7085;51.428;6.796;2023-07-13T07:40:46;6.05;;;2.50;;
14019;SDS011;7085;51.428;6.796;2023-07-13T07:43:13;5.63;;;2.72;;
14019;SDS011;7085;51.428;6.796;2023-07-13T07:45:40;7.85;;;2.58;;
14019;SDS011;7085;51.428;6.796;2023-07-13T07:48:07;4.13;;;2.50;;
14019;SDS011;7085;51.428;6.796;2023-07-13T07:50:34;4.05;;;2.08;;
14019;SDS011;7085;51.428;6.796;2023-07-13T07:53:03;3.85;;;2.40;;
14019;SDS011;7085;51.428;6.796;2023-07-13T07:55:34;7.60;;;2.85;;
14019;SDS011;7085;51.428;6.796;2023-07-13T07:58:04;7.50;;;3.80;;
14019;SDS011;7085;51.428;6.796;2023-07-13T08:00:31;5.80;;;1.95;;
14019;SDS011;7085;51.428;6.796;2023-07-13T08:02:58;6.35;;;2.35;;
14019;SDS011;7085;51.428;6.796;2023-07-13T08:05:25;5.05;;;1.70;;
14019;SDS011;7085;51.428;6.796;2023-07-13T08:07:52;6.20;;;2.75;;
14019;SDS011;7085;51.428;6.796;2023-07-13T08:10:20;8.77;;;2.83;;
14019;SDS011;7085;51.428;6.796;2023-07-13T08:12:49;4.60;;;2.55;;
14019;SDS011;7085;51.428;6.796;2023-07-13T08:15:19;8.10;;;2.75;;
14019;SDS011;7085;51.428;6.796;2023-07-13T08:17:47;9.43;;;2.47;;
14019;SDS011;7085;51.428;6.796;2023-07-13T08:20:14;5.18;;;2.28;;
14019;SDS011;7085;51.428;6.796;2023-07-13T08:22:41;4.43;;;2.60;;
14019;SDS011;7085;51.428;6.796;2023-07-13T08:25:08;6.60;;;2.88;;
14019;SDS011;7085;51.428;6.796;2023-07-13T08:27:35;7.45;;;3.03;;
14019;SDS011;7085;51.428;6.796;2023-07-13T08:30:05;6.50;;;2.85;;
14019;SDS011;7085;51.428;6.796;2023-07-13T08:32:33;4.70;;;2.05;;
14019;SDS011;7085;51.428;6.796;2023-07-13T08:35:00;5.28;;;2.17;;
14019;SDS011;7085;51.428;6.796;2023-07-13T08:37:27;9.82;;;2.95;;
14019;SDS011;7085;51.428;6.796;2023-07-13T08:39:54;7.72;;;2.70;;
14019;SDS011;7085;51.428;6.796;2023-07-13T08:42:28;3.88;;;2.25;;
14019;SDS011;7085;51.428;6.796;2023-07-13T08:45:01;7.18;;;2.58;;
14019;SDS011;7085;51.428;6.796;2023-07-13T08:47:32;8.00;;;2.28;;
14019;SDS011;7085;51.428;6.796;2023-07-13T08:50:01;4.22;;;2.78;;
14019;SDS011;7085;51.428;6.796;2023-07-13T08:52:29;6.78;;;2.78;;
14019;SDS011;7085;51.428;6.796;2023-07-13T08:54:58;3.03;;;1.80;;
14019;SDS011;7085;51.428;6.796;2023-07-13T08:57:31;3.85;;;1.80;;
14019;SDS011;7085;51.428;6.796;2023-07-13T08:59:59;4.57;;;3.28;;
14019;SDS011;7085;51.428;6.796;2023-07-13T09:02:26;4.15;;;1.67;;
14019;SDS011;7085;51.428;6.796;2023-07-13T09:04:56;4.55;;;1.83;;
14019;SDS011;7085;51.428;6.796;2023-07-13T09:07:38;5.82;;;1.65;;
14019;SDS011;7085;51.428;6.796;2023-07-13T09:10:11;2.47;;;1.48;;
14019;SDS011;7085;51.428;6.796;2023-07-13T09:12:45;5.75;;;2.30;;
14019;SDS011;7085;51.428;6.796;2023-07-13T09:15:22;5.22;;;1.77;;
14019;SDS011;7085;51.428;6.796;2023-07-13T09:17:51;2.22;;;1.50;;
14019;SDS011;7085;51.428;6.796;2023-07-13T09:20:23;5.55;;;1.95;;
14019;SDS011;7085;51.428;6.796;2023-07-13T09:22:52;4.55;;;2.03;;
14019;SDS011;7085;51.428;6.796;2023-07-13T09:25:22;4.68;;;2.30;;
14019;SDS011;7085;51.428;6.796;2023-07-13T09:27:50;4.32;;;1.70;;
14019;SDS011;7085;51.428;6.796;2023-07-13T09:30:22;7.75;;;2.03;;
14019;SDS011;7085;51.428;6.796;2023-07-13T09:32:51;8.13;;;2.17;;
14019;SDS011;7085;51.428;6.796;2023-07-13T09:35:19;4.60;;;1.90;;
14019;SDS011;7085;51.428;6.796;2023-07-13T09:37:48;3.75;;;1.80;;
14019;SDS011;7085;51.428;6.796;2023-07-13T09:40:20;3.95;;;1.83;;
14019;SDS011;7085;51.428;6.796;2023-07-13T09:42:48;4.75;;;1.83;;
14019;SDS011;7085;51.428;6.796;2023-07-13T09:45:17;4.32;;;1.90;;
14019;SDS011;7085;51.428;6.796;2023-07-13T09:47:54;9.45;;;2.00;;
14019;SDS011;7085;51.428;6.796;2023-07-13T09:50:25;4.18;;;2.13;;
14019;SDS011;7085;51.428;6.796;2023-07-13T09:52:55;3.35;;;1.70;;
14019;SDS011;7085;51.428;6.796;2023-07-13T09:55:24;7.35;;;1.90;;
14019;SDS011;7085;51.428;6.796;2023-07-13T09:57:52;4.03;;;2.00;;
14019;SDS011;7085;51.428;6.796;2023-07-13T10:00:20;9.50;;;2.33;;
14019;SDS011;7085;51.428;6.796;2023-07-13T10:02:50;4.03;;;2.13;;
14019;SDS011;7085;51.428;6.796;2023-07-13T10:05:24;5.03;;;2.03;;
14019;SDS011;7085;51.428;6.796;2023-07-13T10:07:51;4.40;;;1.70;;
14019;SDS011;7085;51.428;6.796;2023-07-13T10:10:20;5.22;;;2.08;;
14019;SDS011;7085;51.428;6.796;2023-07-13T10:12:48;4.13;;;1.83;;
14019;SDS011;7085;51.428;6.796;2023-07-13T10:15:16;6.47;;;2.00;;
14019;SDS011;7085;51.428;6.796;2023-07-13T10:17:44;4.35;;;1.40;;
14019;SDS011;7085;51.428;6.796;2023-07-13T10:20:12;1.98;;;1.67;;
14019;SDS011;7085;51.428;6.796;2023-07-13T10:22:41;4.05;;;2.00;;
14019;SDS011;7085;51.428;6.796;2023-07-13T10:25:13;8.98;;;2.25;;
14019;SDS011;7085;51.428;6.796;2023-07-13T10:27:44;3.85;;;1.85;;
14019;SDS011;7085;51.428;6.796;2023-07-13T10:30:13;2.58;;;1.60;;
14019;SDS011;7085;51.428;6.796;2023-07-13T10:32:42;4.55;;;1.48;;
14019;SDS011;7085;51.428;6.796;2023-07-13T10:35:10;6.53;;;2.10;;
14019;SDS011;7085;51.428;6.796;2023-07-13T10:37:40;6.38;;;1.83;;
14019;SDS011;7085;51.428;6.796;2023-07-13T10:40:11;2.47;;;1.40;;
14019;SDS011;7085;51.428;6.796;2023-07-13T10:42:40;4.47;;;1.58;;
14019;SDS011;7085;51.428;6.796;2023-07-13T10:45:13;3.65;;;1.75;;
14019;SDS011;7085;51.428;6.796;2023-07-13T10:47:41;4.70;;;1.85;;
14019;SDS011;7085;51.428;6.796;2023-07-13T10:50:09;5.28;;;1.70;;
14019;SDS011;7085;51.428;6.796;2023-07-13T10:52:41;4.68;;;1.85;;
14019;SDS011;7085;51.428;6.796;2023-07-13T10:57:51;4.10;;;1.65;;
14019;SDS011;7085;51.428;6.796;2023-07-13T11:00:19;3.92;;;1.70;;
14019;SDS011;7085;51.428;6.796;2023-07-13T11:02:55;4.00;;;1.67;;
14019;SDS011;7085;51.428;6.796;2023-07-13T11:05:26;4.00;;;1.48;;
14019;SDS011;7085;51.428;6.796;2023-07-13T11:07:56;5.45;;;1.80;;
14019;SDS011;7085;51.428;6.796;2023-07-13T11:10:46;3.65;;;1.70;;
14019;SDS011;7085;51.428;6.796;2023-07-13T11:15:56;4.03;;;1.70;;
14019;SDS011;7085;51.428;6.796;2023-07-13T11:18:24;3.60;;;1.50;;
14019;SDS011;7085;51.428;6.796;2023-07-13T11:20:51;4.95;;;1.73;;
14019;SDS011;7085;51.428;6.796;2023-07-13T11:23:29;4.30;;;1.63;;
14019;SDS011;7085;51.428;6.796;2023-07-13T11:25:56;2.55;;;1.38;;
14019;SDS011;7085;51.428;6.796;2023-07-13T11:28:25;5.78;;;1.67;;
14019;SDS011;7085;51.428;6.796;2023-07-13T11:31:10;3.22;;;1.50;;
14019;SDS011;7085;51.428;6.796;2023-07-13T11:33:54;2.95;;;1.40;;
14019;SDS011;7085;51.428;6.796;2023-07-13T11:36:23;3.00;;;1.60;;
14019;SDS011;7085;51.428;6.796;2023-07-13T11:38:55;2.72;;;1.15;;
14019;SDS011;7085;51.428;6.796;2023-07-13T11:41:26;3.55;;;1.35;;
14019;SDS011;7085;51.428;6.796;2023-07-13T11:43:55;3.72;;;2.05;;
14019;SDS011;7085;51.428;6.796;2023-07-13T11:46:25;5.22;;;1.55;;
14019;SDS011;7085;51.428;6.796;2023-07-13T11:48:53;4.32;;;1.58;;
14019;SDS011;7085;51.428;6.796;2023-07-13T11:51:20;4.00;;;1.40;;
14019;SDS011;7085;51.428;6.796;2023-07-13T11:53:49;1.83;;;1.10;;
14019;SDS011;7085;51.428;6.796;2023-07-13T11:56:17;2.97;;;1.38;;
14019;SDS011;7085;51.428;6.796;2023-07-13T11:58:47;3.22;;;1.20;;
14019;SDS011;7085;51.428;6.796;2023-07-13T12:01:16;4.50;;;1.20;;
14019;SDS011;7085;51.428;6.796;2023-07-13T12:03:45;3.88;;;1.30;;
14019;SDS011;7085;51.428;6.796;2023-07-13T12:06:21;6.65;;;1.40;;
14019;SDS011;7085;51.428;6.796;2023-07-13T12:08:50;5.43;;;1.50;;
14019;SDS011;7085;51.428;6.796;2023-07-13T12:11:18;3.90;;;1.48;;
14019;SDS011;7085;51.428;6.796;2023-07-13T12:13:46;1.55;;;1.25;;
14019;SDS011;7085;51.428;6.796;2023-07-13T12:16:14;5.65;;;1.60;;
14019;SDS011;7085;51.428;6.796;2023-07-13T12:18:42;3.47;;;1.65;;
14019;SDS011;7085;51.428;6.796;2023-07-13T12:21:14;7.95;;;1.25;;
14019;SDS011;7085;51.428;6.796;2023-07-13T12:23:44;3.67;;;1.65;;
14019;SDS011;7085;51.428;6.796;2023-07-13T12:26:11;7.60;;;1.40;;
14019;SDS011;7085;51.428;6.796;2023-07-13T12:28:43;2.95;;;1.15;;
14019;SDS011;7085;51.428;6.796;2023-07-13T12:31:22;3.00;;;1.30;;
14019;SDS011;7085;51.428;6.796;2023-07-13T12:33:55;2.47;;;1.30;;
14019;SDS011;7085;51.428;6.796;2023-07-13T12:36:24;3.63;;;1.50;;
14019;SDS011;7085;51.428;6.796;2023-07-13T12:38:52;3.47;;;1.50;;
14019;SDS011;7085;51.428;6.796;2023-07-13T12:41:19;2.53;;;1.20;;
14019;SDS011;7085;51.428;6.796;2023-07-13T12:43:48;2.15;;;1.10;;
14019;SDS011;7085;51.428;6.796;2023-07-13T12:46:16;1.92;;;1.25;;
14019;SDS011;7085;51.428;6.796;2023-07-13T12:48:44;4.05;;;1.60;;
14019;SDS011;7085;51.428;6.796;2023-07-13T12:51:11;6.95;;;1.85;;
14019;SDS011;7085;51.428;6.796;2023-07-13T12:53:41;1.38;;;0.82;;
14019;SDS011;7085;51.428;6.796;2023-07-13T12:56:11;3.65;;;1.33;;
14019;SDS011;7085;51.428;6.796;2023-07-13T12:58:42;2.25;;;1.15;;
14019;SDS011;7085;51.428;6.796;2023-07-13T13:01:10;4.13;;;1.35;;
14019;SDS011;7085;51.428;6.796;2023-07-13T13:03:39;2.47;;;1.60;;
14019;SDS011;7085;51.428;6.796;2023-07-13T13:06:18;8.60;;;1.67;;
14019;SDS011;7085;51.428;6.796;2023-07-13T13:08:49;2.60;;;1.50;;
14019;SDS011;7085;51.428;6.796;2023-07-13T13:11:16;3.67;;;1.38;;
14019;SDS011;7085;51.428;6.796;2023-07-13T13:13:44;3.83;;;1.20;;
14019;SDS011;7085;51.428;6.796;2023-07-13T13:16:12;2.67;;;1.40;;
14019;SDS011;7085;51.428;6.796;2023-07-13T13:18:41;3.95;;;1.50;;
14019;SDS011;7085;51.428;6.796;2023-07-13T13:21:08;1.80;;;1.40;;
14019;SDS011;7085;51.428;6.796;2023-07-13T13:23:36;1.75;;;1.20;;
14019;SDS011;7085;51.428;6.796;2023-07-13T13:26:08;3.95;;;1.40;;
14019;SDS011;7085;51.428;6.796;2023-07-13T13:28:36;3.65;;;1.40;;
14019;SDS011;7085;51.428;6.796;2023-07-13T13:31:03;2.90;;;1.30;;
14019;SDS011;7085;51.428;6.796;2023-07-13T13:33:30;2.20;;;1.10;;
14019;SDS011;7085;51.428;6.796;2023-07-13T13:35:58;3.03;;;1.23;;
14019;SDS011;7085;51.428;6.796;2023-07-13T13:38:26;3.05;;;1.30;;
14019;SDS011;7085;51.428;6.796;2023-07-13T13:40:53;3.95;;;1.50;;
14019;SDS011;7085;51.428;6.796;2023-07-13T13:43:23;1.98;;;1.30;;
14019;SDS011;7085;51.428;6.796;2023-07-13T13:45:52;1.40;;;1.17;;
14019;SDS011;7085;51.428;6.796;2023-07-13T13:48:20;2.17;;;1.10;;
14019;SDS011;7085;51.428;6.796;2023-07-13T13:50:52;3.53;;;1.42;;
14019;SDS011;7085;51.428;6.796;2023-07-13T13:53:19;5.78;;;1.27;;
14019;SDS011;7085;51.428;6.796;2023-07-13T13:55:48;6.80;;;1.13;;
14019;SDS011;7085;51.428;6.796;2023-07-13T13:58:17;2.03;;;1.30;;
14019;SDS011;7085;51.428;6.796;2023-07-13T14:00:49;1.88;;;1.30;;
14019;SDS011;7085;51.428;6.796;2023-07-13T14:03:17;2.28;;;1.30;;
14019;SDS011;7085;51.428;6.796;2023-07-13T14:05:45;3.08;;;1.45;;
14019;SDS011;7085;51.428;6.796;2023-07-13T14:08:13;5.78;;;2.38;;
14019;SDS011;7085;51.428;6.796;2023-07-13T14:10:41;2.83;;;2.00;;
14019;SDS011;7085;51.428;6.796;2023-07-13T14:13:11;2.53;;;1.65;;
14019;SDS011;7085;51.428;6.796;2023-07-13T14:15:41;4.03;;;1.95;;
14019;SDS011;7085;51.428;6.796;2023-07-13T14:18:10;5.30;;;2.15;;
14019;SDS011;7085;51.428;6.796;2023-07-13T14:20:42;5.88;;;2.00;;
14019;SDS011;7085;51.428;6.796;2023-07-13T14:23:10;8.82;;;2.85;;
14019;SDS011;7085;51.428;6.796;2023-07-13T14:25:37;4.05;;;2.35;;
14019;SDS011;7085;51.428;6.796;2023-07-13T14:28:13;5.63;;;2.08;;
14019;SDS011;7085;51.428;6.796;2023-07-13T14:30:42;7.15;;;2.80;;
14019;SDS011;7085;51.428;6.796;2023-07-13T14:33:10;8.23;;;2.78;;
14019;SDS011;7085;51.428;6.796;2023-07-13T14:35:38;5.55;;;2.65;;
14019;SDS011;7085;51.428;6.796;2023-07-13T14:38:08;8.77;;;3.17;;
14019;SDS011;7085;51.428;6.796;2023-07-13T14:40:36;6.22;;;2.42;;
14019;SDS011;7085;51.428;6.796;2023-07-13T14:43:03;3.63;;;2.40;;
14019;SDS011;7085;51.428;6.796;2023-07-13T14:45:39;3.33;;;2.08;;
14019;SDS011;7085;51.428;6.796;2023-07-13T14:48:12;3.40;;;1.80;;
14019;SDS011;7085;51.428;6.796;2023-07-13T14:50:40;3.83;;;1.85;;
14019;SDS011;7085;51.428;6.796;2023-07-13T14:53:08;9.73;;;3.40;;
14019;SDS011;7085;51.428;6.796;2023-07-13T14:55:36;32.13;;;4.72;;
14019;SDS011;7085;51.428;6.796;2023-07-13T14:58:03;6.18;;;2.55;;
14019;SDS011;7085;51.428;6.796;2023-07-13T15:00:30;3.22;;;1.83;;
14019;SDS011;7085;51.428;6.796;2023-07-13T15:02:59;7.82;;;2.40;;
14019;SDS011;7085;51.428;6.796;2023-07-13T15:05:28;7.13;;;2.08;;
14019;SDS011;7085;51.428;6.796;2023-07-13T15:07:57;6.45;;;2.30;;
14019;SDS011;7085;51.428;6.796;2023-07-13T15:10:25;2.95;;;1.70;;
14019;SDS011;7085;51.428;6.796;2023-07-13T15:12:53;4.25;;;1.73;;
14019;SDS011;7085;51.428;6.796;2023-07-13T15:15:20;5.93;;;2.78;;
14019;SDS011;7085;51.428;6.796;2023-07-13T15:17:47;4.65;;;1.55;;
14019;SDS011;7085;51.428;6.796;2023-07-13T15:20:16;2.25;;;1.25;;
14019;SDS011;7085;51.428;6.796;2023-07-13T15:22:45;4.78;;;1.38;;
14019;SDS011;7085;51.428;6.796;2023-07-13T15:25:15;2.13;;;1.40;;
14019;SDS011;7085;51.428;6.796;2023-07-13T15:27:42;3.50;;;0.95;;
14019;SDS011;7085;51.428;6.796;2023-07-13T15:30:09;1.95;;;1.50;;
14019;SDS011;7085;51.428;6.796;2023-07-13T15:32:37;1.50;;;1.08;;
14019;SDS011;7085;51.428;6.796;2023-07-13T15:35:04;2.50;;;1.45;;
14019;SDS011;7085;51.428;6.796;2023-07-13T15:37:31;1.48;;;1.17;;
14019;SDS011;7085;51.428;6.796;2023-07-13T15:40:00;3.33;;;1.58;;
14019;SDS011;7085;51.428;6.796;2023-07-13T15:42:27;2.80;;;1.52;;
14019;SDS011;7085;51.428;6.796;2023-07-13T15:44:54;2.03;;;1.10;;
14019;SDS011;7085;51.428;6.796;2023-07-13T15:47:23;1.92;;;1.33;;
14019;SDS011;7085;51.428;6.796;2023-07-13T15:49:50;1.52;;;1.38;;
14019;SDS011;7085;51.428;6.796;2023-07-13T15:52:17;2.28;;;1.40;;
14019;SDS011;7085;51.428;6.796;2023-07-13T15:54:45;3.28;;;1.55;;
14019;SDS011;7085;51.428;6.796;2023-07-13T15:57:14;1.30;;;1.20;;
14019;SDS011;7085;51.428;6.796;2023-07-13T15:59:41;4.65;;;1.65;;
14019;SDS011;7085;51.428;6.796;2023-07-13T16:02:11;2.58;;;1.10;;
14019;SDS011;7085;51.428;6.796;2023-07-13T16:04:39;2.83;;;1.35;;
14019;SDS011;7085;51.428;6.796;2023-07-13T16:07:07;3.20;;;1.48;;
14019;SDS011;7085;51.428;6.796;2023-07-13T16:09:35;1.83;;;1.58;;
14019;SDS011;7085;51.428;6.796;2023-07-13T16:12:03;2.65;;;1.17;;
14019;SDS011;7085;51.428;6.796;2023-07-13T16:14:32;2.08;;;1.63;;
14019;SDS011;7085;51.428;6.796;2023-07-13T16:16:59;1.70;;;1.38;;
14019;SDS011;7085;51.428;6.796;2023-07-13T16:19:27;1.77;;;1.25;;
14019;SDS011;7085;51.428;6.796;2023-07-13T16:21:54;2.35;;;1.70;;
14019;SDS011;7085;51.428;6.796;2023-07-13T16:24:24;3.20;;;1.88;;
14019;SDS011;7085;51.428;6.796;2023-07-13T16:26:52;1.02;;;1.02;;
14019;SDS011;7085;51.428;6.796;2023-07-13T16:29:22;2.25;;;1.40;;
14019;SDS011;7085;51.428;6.796;2023-07-13T16:31:57;3.38;;;1.20;;
14019;SDS011;7085;51.428;6.796;2023-07-13T16:34:26;2.45;;;1.20;;
14019;SDS011;7085;51.428;6.796;2023-07-13T16:36:53;3.40;;;1.55;;
14019;SDS011;7085;51.428;6.796;2023-07-13T16:39:20;2.67;;;1.30;;
14019;SDS011;7085;51.428;6.796;2023-07-13T16:41:49;1.80;;;1.40;;
14019;SDS011;7085;51.428;6.796;2023-07-13T16:44:17;2.33;;;1.40;;
14019;SDS011;7085;51.428;6.796;2023-07-13T16:46:46;2.67;;;1.60;;
14019;SDS011;7085;51.428;6.796;2023-07-13T16:49:21;1.63;;;1.42;;
14019;SDS011;7085;51.428;6.796;2023-07-13T16:51:48;1.35;;;1.02;;
14019;SDS011;7085;51.428;6.796;2023-07-13T16:54:15;2.58;;;1.40;;
14019;SDS011;7085;51.428;6.796;2023-07-13T16:56:44;4.00;;;1.38;;
14019;SDS011;7085;51.428;6.796;2023-07-13T16:59:12;2.00;;;0.90;;
14019;SDS011;7085;51.428;6.796;2023-07-13T17:01:41;3.90;;;1.30;;
14019;SDS011;7085;51.428;6.796;2023-07-13T17:04:09;2.90;;;1.48;;
14019;SDS011;7085;51.428;6.796;2023-07-13T17:06:37;5.88;;;1.40;;
14019;SDS011;7085;51.428;6.796;2023-07-13T17:09:07;1.30;;;1.10;;
14019;SDS011;7085;51.428;6.796;2023-07-13T17:11:36;1.40;;;1.05;;
14019;SDS011;7085;51.428;6.796;2023-07-13T17:14:05;1.95;;;1.20;;
14019;SDS011;7085;51.428;6.796;2023-07-13T17:16:33;3.50;;;1.55;;
14019;SDS011;7085;51.428;6.796;2023-07-13T17:19:00;2.38;;;1.30;;
14019;SDS011;7085;51.428;6.796;2023-07-13T17:21:28;1.90;;;1.25;;
14019;SDS011;7085;51.428;6.796;2023-07-13T17:23:58;4.30;;;1.50;;
14019;SDS011;7085;51.428;6.796;2023-07-13T17:26:25;1.98;;;1.10;;
14019;SDS011;7085;51.428;6.796;2023-07-13T17:28:52;2.60;;;1.00;;
14019;SDS011;7085;51.428;6.796;2023-07-13T17:31:20;1.15;;;1.02;;
14019;SDS011;7085;51.428;6.796;2023-07-13T17:33:47;3.63;;;1.25;;
14019;SDS011;7085;51.428;6.796;2023-07-13T17:36:15;3.03;;;1.17;;
14019;SDS011;7085;51.428;6.796;2023-07-13T17:38:43;1.35;;;1.25;;
14019;SDS011;7085;51.428;6.796;2023-07-13T17:41:13;1.10;;;1.00;;
14019;SDS011;7085;51.428;6.796;2023-07-13T17:43:41;1.33;;;1.05;;
14019;SDS011;7085;51.428;6.796;2023-07-13T17:46:10;1.50;;;1.35;;
14019;SDS011;7085;51.428;6.796;2023-07-13T17:48:38;1.38;;;1.27;;
14019;SDS011;7085;51.428;6.796;2023-07-13T17:51:07;2.75;;;1.23;;
14019;SDS011;7085;51.428;6.796;2023-07-13T17:53:34;1.30;;;1.20;;
14019;SDS011;7085;51.428;6.796;2023-07-13T17:56:01;1.98;;;1.63;;
14019;SDS011;7085;51.428;6.796;2023-07-13T17:58:31;2.95;;;1.13;;
14019;SDS011;7085;51.428;6.796;2023-07-13T18:00:58;2.92;;;1.02;;
14019;SDS011;7085;51.428;6.796;2023-07-13T18:03:26;1.30;;;1.20;;
14019;SDS011;7085;51.428;6.796;2023-07-13T18:05:57;1.38;;;1.05;;
14019;SDS011;7085;51.428;6.796;2023-07-13T18:08:25;1.42;;;1.20;;
14019;SDS011;7085;51.428;6.796;2023-07-13T18:10:53;3.00;;;1.20;;
14019;SDS011;7085;51.428;6.796;2023-07-13T18:13:21;2.47;;;2.15;;
14019;SDS011;7085;51.428;6.796;2023-07-13T18:15:49;1.98;;;1.15;;